createdAt,value
2022-11-30T00:01:27.701Z,7.54
2022-11-30T00:06:32.136Z,7.52
2022-11-30T00:11:35.147Z,7.49
2022-11-30T00:16:38.093Z,7.44
2022-11-30T00:21:42.564Z,7.47
2022-11-30T00:26:45.518Z,7.49
2022-11-30T00:31:48.445Z,7.45
2022-11-30T00:36:52.777Z,7.40
2022-11-30T00:41:55.794Z,7.36
2022-11-30T00:47:00.032Z,7.34
2022-11-30T00:52:04.777Z,7.32
2022-11-30T00:57:07.790Z,7.34
2022-11-30T01:02:10.731Z,7.33
2022-11-30T01:07:15.185Z,7.35
2022-11-30T01:12:18.153Z,7.40
2022-11-30T01:17:21.355Z,7.41
2022-11-30T01:22:26.901Z,7.38
2022-11-30T01:27:30.080Z,7.36
2022-11-30T01:32:33.083Z,7.27
2022-11-30T01:37:37.688Z,7.30
2022-11-30T01:42:47.333Z,7.38
2022-11-30T01:47:53.671Z,7.47
2022-11-30T01:53:00.378Z,7.53
2022-11-30T01:58:07.049Z,7.56
2022-11-30T02:03:16.585Z,7.54
2022-11-30T02:08:21.376Z,7.52
2022-11-30T02:13:39.052Z,7.50
2022-11-30T02:18:52.079Z,7.43
2022-11-30T02:24:29.934Z,7.36
2022-11-30T02:29:39.552Z,7.34
2022-11-30T02:34:45.437Z,7.21
2022-11-30T02:39:48.923Z,7.10
2022-11-30T02:44:54.654Z,7.05
2022-11-30T02:50:02.736Z,7.13
2022-11-30T02:55:09.166Z,7.16
2022-11-30T03:00:16.326Z,7.24
2022-11-30T03:05:19.486Z,7.25
2022-11-30T03:10:22.684Z,7.27
2022-11-30T03:15:27.704Z,7.25
2022-11-30T03:20:32.488Z,7.24
2022-11-30T03:25:35.877Z,7.20
2022-11-30T03:30:40.282Z,7.15
2022-11-30T03:35:43.467Z,7.17
2022-11-30T03:40:46.484Z,7.10
2022-11-30T03:45:50.909Z,7.14
2022-11-30T03:50:53.983Z,7.19
2022-11-30T03:55:58.390Z,7.23
2022-11-30T04:01:05.626Z,7.28
2022-11-30T04:06:10.012Z,7.28
2022-11-30T04:11:13.991Z,7.25
2022-11-30T04:16:18.438Z,7.29
2022-11-30T04:21:21.885Z,7.30
2022-11-30T04:26:24.895Z,7.32
2022-11-30T04:31:29.228Z,7.35
2022-11-30T04:36:35.178Z,7.41
2022-11-30T04:41:38.154Z,7.42
2022-11-30T04:46:42.512Z,7.42
2022-11-30T04:51:45.565Z,7.31
2022-11-30T04:56:48.515Z,7.35
2022-11-30T05:01:52.877Z,7.32
2022-11-30T05:06:55.906Z,7.27
2022-11-30T05:11:59.054Z,7.19
2022-11-30T05:17:06.108Z,7.18
2022-11-30T05:22:09.113Z,7.21
2022-11-30T05:27:16.629Z,7.27
2022-11-30T05:32:24.091Z,7.28
2022-11-30T05:37:27.115Z,7.21
2022-11-30T05:42:30.148Z,7.14
2022-11-30T05:47:34.564Z,7.11
2022-11-30T05:52:37.539Z,7.18
2022-11-30T05:57:41.271Z,7.19
2022-11-30T06:02:45.902Z,7.21
2022-11-30T06:07:49.068Z,7.23
2022-11-30T06:12:52.178Z,7.27
2022-11-30T06:17:57.774Z,7.26
2022-11-30T06:23:03.380Z,7.24
2022-11-30T06:28:10.506Z,7.25
2022-11-30T06:33:14.834Z,7.23
2022-11-30T06:38:17.778Z,7.25
2022-11-30T06:43:20.857Z,7.27
2022-11-30T06:48:25.532Z,7.25
2022-11-30T06:53:28.949Z,7.19
2022-11-30T06:58:34.087Z,7.18
2022-11-30T07:03:38.964Z,7.18
2022-11-30T07:08:42.881Z,7.16
2022-11-30T07:13:47.798Z,7.17
2022-11-30T07:18:52.157Z,7.11
2022-11-30T07:24:12.592Z,7.06
2022-11-30T07:29:15.885Z,7.03
2022-11-30T07:34:20.837Z,7.12
2022-11-30T07:39:24.468Z,7.20
2022-11-30T07:44:27.661Z,7.25
2022-11-30T07:49:34.768Z,7.16
2022-11-30T07:54:40.905Z,7.11
2022-11-30T07:59:43.984Z,7.14
2022-11-30T08:04:48.773Z,7.15
2022-11-30T08:09:51.934Z,7.17
2022-11-30T08:15:19.464Z,7.19
2022-11-30T08:20:19.681Z,7.27
2022-11-30T08:25:22.792Z,7.32
2022-11-30T08:30:27.911Z,7.37
2022-11-30T08:35:36.957Z,7.31
2022-11-30T08:40:40.334Z,7.19
2022-11-30T08:45:43.502Z,7.29
2022-11-30T08:50:47.983Z,7.38
2022-11-30T08:55:57.308Z,7.53
2022-11-30T09:01:07.467Z,7.58
2022-11-30T09:06:15.484Z,7.54
2022-11-30T09:11:21.289Z,7.61
2022-11-30T09:16:24.882Z,7.71
2022-11-30T09:21:29.490Z,7.78
2022-11-30T09:26:35.706Z,7.97
2022-11-30T09:31:38.758Z,7.95
2022-11-30T09:36:43.214Z,7.94
2022-11-30T09:42:18.535Z,8.06
2022-11-30T09:47:43.048Z,8.12
2022-11-30T09:52:52.262Z,8.29
2022-11-30T09:57:58.028Z,8.47
2022-11-30T10:03:05.869Z,8.74
2022-11-30T10:08:23.656Z,8.85
2022-11-30T10:13:41.561Z,8.78
2022-11-30T10:18:54.479Z,8.82
2022-11-30T10:24:15.103Z,8.83
2022-11-30T10:29:20.948Z,8.96
2022-11-30T10:34:27.229Z,9.10
2022-11-30T10:39:35.792Z,9.04
2022-11-30T10:44:42.077Z,9.11
2022-11-30T10:49:49.497Z,9.08
2022-11-30T10:55:00.577Z,9.28
2022-11-30T11:00:08.950Z,9.30
2022-11-30T11:05:23.879Z,9.21
2022-11-30T11:10:34.520Z,9.13
2022-11-30T11:15:38.361Z,9.25
2022-11-30T11:20:43.910Z,9.35
2022-11-30T11:25:53.287Z,9.40
2022-11-30T11:30:58.398Z,9.21
2022-11-30T11:36:15.718Z,8.83
2022-11-30T11:41:24.247Z,8.61
2022-11-30T11:46:27.939Z,8.64
2022-11-30T11:51:33.374Z,8.89
2022-11-30T11:56:38.698Z,9.09
2022-11-30T12:01:49.897Z,9.58
2022-11-30T12:06:56.095Z,9.95
2022-11-30T12:12:00.653Z,10.07
2022-11-30T12:17:18.239Z,10.03
2022-11-30T12:22:43.490Z,10.38
2022-11-30T12:27:57.094Z,10.37
2022-11-30T12:33:15.293Z,9.91
2022-11-30T12:38:29.903Z,9.79
2022-11-30T12:43:45.853Z,9.82
2022-11-30T12:49:04.187Z,9.84
2022-11-30T12:54:18.753Z,9.92
2022-11-30T12:59:32.603Z,9.91
2022-11-30T13:04:42.112Z,9.87
2022-11-30T13:09:51.354Z,9.76
2022-11-30T13:15:01.172Z,9.76
2022-11-30T13:20:09.277Z,9.43
2022-11-30T13:25:44.956Z,9.15
2022-11-30T13:30:53.860Z,9.03
2022-11-30T13:35:57.419Z,9.01
2022-11-30T13:41:03.591Z,9.07
2022-11-30T13:46:15.088Z,8.97
2022-11-30T13:51:36.164Z,8.74
2022-11-30T13:56:39.203Z,8.56
2022-11-30T14:01:43.916Z,8.44
2022-11-30T14:06:50.055Z,8.33
2022-11-30T14:11:53.179Z,8.29
2022-11-30T14:16:59.309Z,8.41
2022-11-30T14:22:04.095Z,8.51
2022-11-30T14:27:07.892Z,8.60
2022-11-30T14:32:17.701Z,8.69
2022-11-30T14:37:24.027Z,8.70
2022-11-30T14:42:29.123Z,8.63
2022-11-30T14:47:35.196Z,8.60
2022-11-30T14:52:52.508Z,8.61
2022-11-30T14:58:07.103Z,8.66
2022-11-30T15:03:21.278Z,8.51
2022-11-30T15:08:26.900Z,8.21
2022-11-30T15:13:32.103Z,7.94
2022-11-30T15:18:40.608Z,7.71
2022-11-30T15:23:46.701Z,7.51
2022-11-30T15:28:59.919Z,7.30
2022-11-30T15:34:06.568Z,7.13
2022-11-30T15:39:20.586Z,6.98
2022-11-30T15:44:26.706Z,6.97
2022-11-30T15:49:32.201Z,6.99
2022-11-30T15:54:50.314Z,6.98
2022-11-30T16:00:20.127Z,6.93
2022-11-30T16:05:26.911Z,6.84
2022-11-30T16:10:34.036Z,6.66
2022-11-30T16:15:39.247Z,6.52
2022-11-30T16:20:44.596Z,6.36
2022-11-30T16:25:49.367Z,6.28
2022-11-30T16:30:54.530Z,6.14
2022-11-30T16:36:02.665Z,6.01
2022-11-30T16:41:15.719Z,5.92
2022-11-30T16:46:21.226Z,5.86
2022-11-30T16:51:28.930Z,5.80
2022-11-30T16:56:32.433Z,5.77
2022-11-30T17:01:37.617Z,5.72
2022-11-30T17:06:42.099Z,5.66
2022-11-30T17:11:47.489Z,5.58
2022-11-30T17:16:50.858Z,5.49
2022-11-30T17:21:55.559Z,5.43
2022-11-30T17:26:59.914Z,5.41
2022-11-30T17:32:06.268Z,5.32
2022-11-30T17:37:10.781Z,5.24
2022-11-30T17:42:13.749Z,5.18
2022-11-30T17:47:17.265Z,5.08
2022-11-30T17:52:21.729Z,4.97
2022-11-30T17:57:24.975Z,4.93
2022-11-30T18:02:28.106Z,4.81
2022-11-30T18:07:35.212Z,4.77
2022-11-30T18:12:38.688Z,4.70
2022-11-30T18:17:41.811Z,4.67
2022-11-30T18:22:46.623Z,4.56
2022-11-30T18:27:53.469Z,4.51
2022-11-30T18:32:56.494Z,4.48
2022-11-30T18:38:00.921Z,4.53
2022-11-30T18:43:04.305Z,4.64
2022-11-30T18:48:07.554Z,4.56
2022-11-30T18:53:16.749Z,4.49
2022-11-30T18:58:21.451Z,4.41
2022-11-30T19:03:26.895Z,4.39
2022-11-30T19:08:33.896Z,4.35
2022-11-30T19:13:37.479Z,4.30
2022-11-30T19:18:41.010Z,4.25
2022-11-30T19:23:45.961Z,4.24
2022-11-30T19:28:48.994Z,4.29
2022-11-30T19:33:53.770Z,4.39
2022-11-30T19:39:01.952Z,4.52
2022-11-30T19:44:05.384Z,4.63
2022-11-30T19:49:10.012Z,4.71
2022-11-30T19:54:14.508Z,4.75
2022-11-30T19:59:17.717Z,4.67
2022-11-30T20:04:20.806Z,4.52
2022-11-30T20:09:25.403Z,4.44
2022-11-30T20:14:28.706Z,4.56
2022-11-30T20:19:35.186Z,4.63
2022-11-30T20:24:39.694Z,4.69
2022-11-30T20:29:47.857Z,4.78
2022-11-30T20:34:54.525Z,4.87
2022-11-30T20:39:59.375Z,4.88
2022-11-30T20:45:02.338Z,4.86
2022-11-30T20:50:07.092Z,4.81
2022-11-30T20:55:11.810Z,4.74
2022-11-30T21:00:17.594Z,4.66
2022-11-30T21:05:22.784Z,4.64
2022-11-30T21:10:27.369Z,4.65
2022-11-30T21:15:30.735Z,4.69
2022-11-30T21:20:38.733Z,4.73
2022-11-30T21:25:45.922Z,4.76
2022-11-30T21:30:49.066Z,4.80
2022-11-30T21:35:52.348Z,4.82
2022-11-30T21:40:58.425Z,4.84
2022-11-30T21:46:07.606Z,4.88
2022-11-30T21:51:12.805Z,4.90
2022-11-30T21:56:19.344Z,4.88
2022-11-30T22:01:24.335Z,4.89
2022-11-30T22:06:28.777Z,4.90
2022-11-30T22:11:33.370Z,4.89
2022-11-30T22:16:36.889Z,4.92
2022-11-30T22:21:44.059Z,4.94
2022-11-30T22:26:51.269Z,4.94
2022-11-30T22:32:00.101Z,4.94
2022-11-30T22:37:03.731Z,4.99
2022-11-30T22:42:08.287Z,5.01
2022-11-30T22:47:13.553Z,5.03
2022-11-30T22:52:16.592Z,5.03
2022-11-30T22:57:20.922Z,4.94
2022-11-30T23:02:23.910Z,4.92
2022-11-30T23:07:31.871Z,4.91
